Flugplatz Meschede-Schüren

Für EDKM sind keine METAR/TAF Berichte vorhanden.
Es werden die Flugwettermeldungen vom Flugplatz Paderborn Lippstadt in 43 km Entfernung angezeigt.

Bericht für EDLP

vom 14.11. um 10:20 UTC

Wind 11 kt aus 120°

Sichtweite 10 km oder mehr

gute Sicht, keine Wolken < 5000 ft, keine CB, keine Wettererscheinungen (CAVOK)

Temperatur 6.0°C

Taupunkt 1.0°C

Luftfeuchtigkeit 70%

Luftdruck 1003 hPa

EDLP 141020Z 12011KT 080V150 CAVOK 06/01 Q1003

Prognose für EDLP

vom 14.11. um 00:00 UTC

Zwischen 00:00 UTC und 00:00 UTC

Wind 10 kt aus 140°

Sichtweite 10 km oder mehr

keine signifikanten Wettererscheinungen

keine Wolken

TAF EDLP 140500Z 1406/1506 14010KT CAVOK
Impressum